Elsinore, Utah
Current Conditions -  °F | °C
As of 2:52 AM on Friday 24 Oct 2014 (Local Time) from KMLF Reporting Station
Clear Clear  
Wind Chill: 49°   Ceiling: Unl
Heat Index: 49°   Visibility: 10mi
Dew Point: 29°   Wind: 0mph
Humidity: 46%   Direction: NA
Pressure: 30.19"   Gusts: NA
Location:  38.68°N, 112.15°W
Report Text: KMLF 240852Z AUTO 00000KT 10SM CLR 09/M02 A3019 RMK AO2 SLP177 T00941017 53004 TSNO
Loading
Personal Weather Stations






























Interactive Weather Map
Tropical Storm Tracking
New forecast layout! Learn more

10-Day Weather Forecast

Advertisements
Track Severe Weather on mobile